Flight Track Log - Related Links

Times and Time Zones

All times are in EST time to prevent confusion due to time zone crossing. See the EJA929 flight status page for this flight to view local times or setup timezone preferences in your user account.

Time Position Orientation Groundspeed Altitude Reporting Facility
EST Latitude Longitude Course Direction KTS MPH feet Rate Location/Type
Sun 11:41:03 AM 37.7500 -122.2833 55° Northeast 233 268 2,600  Level Northern Cal TRACON
Sun 11:42:03 AM 37.8167 -122.2833 360° North 266 306 6,100 2,540 Climbing Northern Cal TRACON
Sun 11:44:12 AM 37.9250 -122.1539 43° Northeast 285 328 10,600 1,800 Climbing Oakland Center
Sun 11:45:13 AM 37.9869 -122.0814 43° Northeast 306 352 11,800 1,328 Climbing Oakland Center
Sun 11:46:00 AM 38.0472 -121.2551 55° Northeast  Level Estimated
Sun 11:46:14 AM 38.0753 -121.9803 42° Northeast 356 410 13,300  Level Oakland Center
Sun 11:47:15 AM 38.1508 -121.8931 42° Northeast 367 422 14,800 1,279 Climbing Oakland Center
Sun 11:48:16 AM 38.2289 -121.8019 43° Northeast 379 436 15,900 1,171 Climbing Oakland Center
Sun 11:49:18 AM 38.3094 -121.7083 42° Northeast 392 451 17,200 1,131 Climbing Oakland Center
Sun 11:50:18 AM 38.3911 -121.6125 43° Northeast 399 459 18,200 1,180 Climbing Oakland Center
Sun 11:51:20 AM 38.4697 -121.5092 46° Northeast 409 471 19,600 1,317 Climbing Oakland Center
Sun 11:52:21 AM 38.5372 -121.3903 54° Northeast 415 478 20,900 1,279 Climbing Oakland Center
Sun 11:53:22 AM 38.6075 -121.2681 54° Northeast 422 486 22,200 1,426 Climbing Oakland Center
Sun 11:54:23 AM 38.6867 -121.1336 53° Northeast 433 498 23,800 1,475 Climbing Oakland Center
Sun 11:55:24 AM 38.7608 -121.0047 54° Northeast 445 512 25,200 1,328 Climbing Oakland Center
Sun 11:56:25 AM 38.8356 -120.8744 54° Northeast 452 520 26,500 1,268 Climbing Oakland Center
Sun 11:57:27 AM 38.9125 -120.7403 54° Northeast 462 532 27,800 1,317 Climbing Oakland Center
Sun 11:58:28 AM 39.0003 -120.5900 53° Northeast 476 548 29,200 1,377 Climbing Oakland Center
Sun 11:59:29 AM 39.0711 -120.4642 54° Northeast 481 554 30,600 1,328 Climbing Oakland Center
Sun 12:00:30 PM 39.1519 -120.3225 54° Northeast 489 563 31,900 1,082 Climbing Oakland Center
Sun 12:01:31 PM 39.2531 -120.1447 54° Northeast 509 586 32,800 1,131 Climbing Oakland Center
Sun 12:02:32 PM 39.3333 -120.0072 53° Northeast 518 596 34,200 1,279 Climbing Oakland Center
Sun 12:03:33 PM 39.4178 -119.8556 54° Northeast 523 602 35,400 1,366 Climbing Oakland Center
Sun 12:04:35 PM 39.5022 -119.7050 54° Northeast 515 593 37,000 1,512 Climbing Oakland Center
Sun 12:05:36 PM 39.5861 -119.5564 54° Northeast 510 587 38,500 1,279 Climbing Oakland Center
Sun 12:06:37 PM 39.6703 -119.4083 54° Northeast 505 581 39,600 934 Climbing Oakland Center
Sun 12:07:38 PM 39.7531 -119.2572 54° Northeast 508 585 40,400 689 Climbing Oakland Center
Sun 12:08:39 PM 39.8358 -119.1061 54° Northeast 509 586 41,000 293 Climbing Oakland Center
Sun 12:09:41 PM 39.9186 -118.9575 54° Northeast 505 581 41,000  Level Oakland Center
Sun 12:10:42 PM 40.0161 -118.7800 54° Northeast 500 575 41,000  Level Oakland Center
Sun 12:11:43 PM 40.0958 -118.6306 55° Northeast 498 573 41,000  Level Oakland Center
Sun 12:12:44 PM 40.1569 -118.4658 64° Northeast 505 581 41,000  Level Oakland Center
Sun 12:13:27 PM 40.1894 -118.3419 71° East 513 590 41,000  Level Salt Lake Center
Sun 12:14:28 PM 40.2358 -118.1728 70° East 516 594 41,000  Level Salt Lake Center
Sun 12:15:30 PM 40.2825 -117.9997 70° East 522 601 41,000  Level Salt Lake Center
Sun 12:16:32 PM 40.3361 -117.8006 70° East 523 602 41,000  Level Salt Lake Center
Sun 12:17:33 PM 40.3828 -117.6278 70° East 524 603 41,000  Level Salt Lake Center
Sun 12:18:35 PM 40.4369 -117.4253 71° East 526 605 41,000  Level Salt Lake Center
Sun 12:19:36 PM 40.4833 -117.2508 71° East 525 604 41,000  Level Salt Lake Center
Sun 12:20:38 PM 40.5294 -117.0747 71° East 526 605 41,000  Level Salt Lake Center
Sun 12:21:39 PM 40.5833 -116.8681 71° East 525 604 41,000  Level Salt Lake Center
Sun 12:22:41 PM 40.6297 -116.6956 70° East 517 595 41,000  Level Salt Lake Center
Sun 12:23:42 PM 40.6767 -116.5250 70° East 514 592 41,000  Level Salt Lake Center
Sun 12:24:44 PM 40.7294 -116.3267 71° East 513 590 41,000  Level Salt Lake Center
Sun 12:25:45 PM 40.7744 -116.1547 71° East 517 595 41,000  Level Salt Lake Center
Sun 12:26:47 PM 40.8289 -115.9542 70° East 519 597 41,000  Level Salt Lake Center
Sun 12:27:48 PM 40.8728 -115.7822 71° East 517 595 41,000  Level Salt Lake Center
Sun 12:28:50 PM 40.9161 -115.6092 72° East 518 596 41,000  Level Salt Lake Center
Sun 12:29:51 PM 40.9697 -115.4067 71° East 521 600 41,000  Level Salt Lake Center
Sun 12:30:53 PM 41.0144 -115.2328 71° East 521 600 41,000  Level Salt Lake Center
Sun 12:31:54 PM 41.0675 -115.0314 71° East 521 600 41,000  Level Salt Lake Center
Sun 12:32:56 PM 41.1097 -114.8589 72° East 516 594 41,000  Level Salt Lake Center
Sun 12:33:57 PM 41.1586 -114.6667 71° East 514 592 41,000  Level Salt Lake Center
Sun 12:34:59 PM 41.2031 -114.4861 72° East 516 594 41,000  Level Salt Lake Center
Sun 12:36:00 PM 41.2469 -114.3067 72° East 513 590 41,000  Level Salt Lake Center
Sun 12:37:02 PM 41.2911 -114.1281 72° East 511 588 41,000  Level Salt Lake Center
Sun 12:38:04 PM 41.3342 -113.9514 72° East 506 582 41,000  Level Salt Lake Center
Sun 12:39:05 PM 41.3692 -113.7686 76° East 509 586 41,000  Level Salt Lake Center
Sun 12:40:07 PM 41.3775 -113.5769 87° East 517 595 41,000  Level Salt Lake Center
Sun 12:41:08 PM 41.3928 -113.3478 85° East 518 596 41,000  Level Salt Lake Center
Sun 12:42:10 PM 41.4058 -113.1572 85° East 517 595 41,000  Level Salt Lake Center
Sun 12:43:11 PM 41.4169 -112.9658 86° East 519 597 41,000  Level Salt Lake Center
Sun 12:44:13 PM 41.4289 -112.7744 85° East 519 597 41,000  Level Salt Lake Center
Sun 12:45:14 PM 41.4408 -112.5817 85° East 521 600 41,000  Level Salt Lake Center
Sun 12:46:16 PM 41.4514 -112.3883 86° East 523 602 41,000  Level Salt Lake Center
Sun 12:47:17 PM 41.4617 -112.1928 86° East 526 605 41,000  Level Salt Lake Center
Sun 12:48:19 PM 41.4725 -111.9978 86° East 526 605 41,000  Level Salt Lake Center
Sun 12:49:20 PM 41.4828 -111.8011 86° East 527 606 41,000  Level Salt Lake Center
Sun 12:50:22 PM 41.4925 -111.6056 86° East 526 605 41,000  Level Salt Lake Center
Sun 12:51:24 PM 41.5039 -111.3719 86° East 523 602 41,000  Level Salt Lake Center
Sun 12:52:25 PM 41.5117 -111.1769 87° East 524 603 41,000  Level Salt Lake Center
Sun 12:53:26 PM 41.5206 -110.9828 86° East 524 603 41,000  Level Salt Lake Center
Sun 12:54:28 PM 41.5292 -110.7953 86° East 531 611 41,000  Level Salt Lake Center
Sun 12:55:29 PM 41.5378 -110.5753 87° East 533 613 41,000  Level Salt Lake Center
Sun 12:56:31 PM 41.5444 -110.3850 87° East 535 616 41,000  Level Salt Lake Center
Sun 12:57:32 PM 41.5542 -110.1628 87° East 538 619 41,000  Level Salt Lake Center
Sun 12:58:34 PM 41.5603 -109.9747 87° East 532 612 41,000  Level Salt Lake Center
Sun 12:59:35 PM 41.5667 -109.7867 87° East 529 609 41,000  Level Salt Lake Center
Sun 01:00:37 PM 41.5739 -109.5675 87° East 529 609 41,000  Level Salt Lake Center
Sun 01:01:38 PM 41.5803 -109.3792 87° East 529 609 41,000  Level Salt Lake Center
Sun 01:02:40 PM 41.5858 -109.1894 88° East 527 606 41,000  Level Salt Lake Center
Sun 01:03:41 PM 41.5942 -108.9650 87° East 531 611 41,000  Level Salt Lake Center
Sun 01:04:43 PM 41.6092 -108.7778 84° East 526 605 41,000  Level Salt Lake Center
Sun 01:05:44 PM 41.6236 -108.5883 84° East 532 612 41,000  Level Salt Lake Center
Sun 01:06:46 PM 41.6392 -108.3672 85° East 535 616 41,000  Level Salt Lake Center
Sun 01:07:47 PM 41.6531 -108.1756 84° East 540 621 41,000  Level Salt Lake Center
Sun 01:08:49 PM 41.6697 -107.9531 84° East 541 623 41,000  Level Salt Lake Center
Sun 01:09:50 PM 41.6825 -107.7644 85° East 535 616 41,000  Level Salt Lake Center
Sun 01:10:50 PM 41.6944 -107.5747 85° East 532 612 41,000  Level Denver Center
Sun 01:11:52 PM 41.7100 -107.3567 84° East 529 609 41,000  Level Denver Center
Sun 01:12:54 PM 41.7208 -107.1706 85° East 526 605 41,000  Level Denver Center
Sun 01:13:56 PM 41.7347 -106.9531 85° East 526 605 41,000  Level Denver Center
Sun 01:14:58 PM 41.7467 -106.7667 85° East 527 606 41,000  Level Denver Center
Sun 01:16:00 PM 41.7583 -106.5489 86° East 525 604 41,000  Level Denver Center
Sun 01:17:02 PM 41.7694 -106.3694 85° East 525 604 41,000  Level Denver Center
Sun 01:18:04 PM 41.7814 -106.1514 86° East 527 606 41,000  Level Denver Center
Sun 01:19:06 PM 41.7917 -105.9656 86° East 526 605 41,000  Level Denver Center
Sun 01:20:08 PM 41.8017 -105.7506 86° East 520 598 41,000  Level Denver Center
Sun 01:21:10 PM 41.8108 -105.5669 86° East 519 597 41,000  Level Denver Center
Sun 01:22:12 PM 41.8206 -105.3542 86° East 516 594 41,000  Level Denver Center
Sun 01:23:14 PM 41.8294 -105.1708 86° East 518 596 41,000  Level Denver Center
Sun 01:24:16 PM 41.8383 -104.9619 87° East 508 585 41,000  Level Denver Center
Sun 01:25:18 PM 41.8464 -104.7822 86° East 507 583 41,000  Level Denver Center
Sun 01:26:20 PM 41.8547 -104.5747 87° East 503 579 41,000  Level Denver Center
Sun 01:27:22 PM 41.8608 -104.3931 87° East 510 587 41,000  Level Denver Center
Sun 01:28:24 PM 41.8692 -104.1831 87° East 509 586 41,000  Level Denver Center
Sun 01:29:27 PM 41.8758 -104.0003 87° East 513 590 41,000  Level Denver Center
Sun 01:30:29 PM 41.8819 -103.7864 88° East 516 594 41,000  Level Denver Center
Sun 01:31:31 PM 41.8886 -103.6008 87° East 521 600 41,000  Level Denver Center
Sun 01:32:33 PM 41.9053 -103.3864 84° East 520 598 41,000  Level Denver Center
Sun 01:33:35 PM 41.9311 -103.2081 79° East 512 589 41,000  Level Denver Center
Sun 01:34:37 PM 41.9603 -102.9989 79° East 511 588 41,000  Level Denver Center
Sun 01:35:39 PM 41.9844 -102.8189 80° East 513 590 41,000  Level Denver Center
Sun 01:36:41 PM 42.0139 -102.6081 79° East 515 593 41,000  Level Denver Center
Sun 01:37:43 PM 42.0372 -102.4281 80° East 513 590 41,000  Level Denver Center
Sun 01:38:45 PM 42.0658 -102.2183 80° East 511 588 41,000  Level Denver Center
Sun 01:39:47 PM 42.0917 -102.0281 80° East 507 583 41,000  Level Denver Center
Sun 01:40:49 PM 42.1142 -101.8506 80° East 503 579 41,000  Level Denver Center
Sun 01:41:51 PM 42.1403 -101.6419 80° East 504 580 41,000  Level Denver Center
Sun 01:42:53 PM 42.1628 -101.4628 80° East 506 582 41,000  Level Denver Center
Sun 01:43:55 PM 42.1844 -101.2839 81° East 506 582 41,000  Level Denver Center
Sun 01:44:57 PM 42.2086 -101.0761 81° East 502 578 41,000  Level Denver Center
Sun 01:45:59 PM 42.2297 -100.8975 81° East 502 578 41,000  Level Denver Center
Sun 01:47:01 PM 42.2544 -100.6889 81° East 503 579 41,000  Level Denver Center
Sun 01:48:03 PM 42.2756 -100.5114 81° East 501 577 41,000  Level Denver Center
Sun 01:48:48 PM 42.2925 -100.3678 81° East 503 579 41,000  Level Minneapolis Center
Sun 01:49:50 PM 42.3128 -100.1822 82° East 501 577 41,000  Level Minneapolis Center
Sun 01:50:51 PM 42.3336 -99.9953 81° East 501 577 41,000  Level Minneapolis Center
Sun 01:51:53 PM 42.3542 -99.8061 82° East 506 582 41,000  Level Minneapolis Center
Sun 01:52:55 PM 42.3750 -99.6153 82° East 509 586 41,000  Level Minneapolis Center
Sun 01:53:57 PM 42.3994 -99.3833 82° East 516 594 41,000  Level Minneapolis Center
Sun 01:54:58 PM 42.4192 -99.1900 82° East 517 595 41,000  Level Minneapolis Center
Sun 01:56:00 PM 42.4392 -98.9936 82° East 523 602 41,000  Level Minneapolis Center
Sun 01:57:02 PM 42.4592 -98.7975 82° East 524 603 41,000  Level Minneapolis Center
Sun 01:58:04 PM 42.4814 -98.6011 81° East 526 605 41,000  Level Minneapolis Center
Sun 01:59:06 PM 42.5092 -98.4092 79° East 521 600 41,000  Level Minneapolis Center
Sun 02:00:08 PM 42.5347 -98.2158 80° East 519 597 41,000  Level Minneapolis Center
Sun 02:01:10 PM 42.5611 -98.0228 79° East 520 598 41,000  Level Minneapolis Center
Sun 02:02:11 PM 42.5881 -97.8261 79° East 518 596 41,000  Level Minneapolis Center
Sun 02:03:13 PM 42.6131 -97.6336 80° East 518 596 41,000  Level Minneapolis Center
Sun 02:04:15 PM 42.6431 -97.4019 80° East 518 596 41,000  Level Minneapolis Center
Sun 02:05:16 PM 42.6678 -97.2100 80° East 516 594 41,000  Level Minneapolis Center
Sun 02:06:18 PM 42.6933 -97.0106 80° East 512 589 41,000  Level Minneapolis Center
Sun 02:07:20 PM 42.7172 -96.8203 80° East 514 592 41,000  Level Minneapolis Center
Sun 02:08:21 PM 42.7406 -96.6319 80° East 509 586 41,000  Level Minneapolis Center
Sun 02:09:23 PM 42.7642 -96.4425 80° East 509 586 41,000  Level Minneapolis Center
Sun 02:10:25 PM 42.7864 -96.2514 81° East 513 590 41,000  Level Minneapolis Center
Sun 02:11:27 PM 42.8092 -96.0586 81° East 517 595 41,000  Level Minneapolis Center
Sun 02:12:28 PM 42.8361 -95.8272 81° East 519 597 41,000  Level Minneapolis Center
Sun 02:13:30 PM 42.8581 -95.6344 81° East 519 597 41,000  Level Minneapolis Center
Sun 02:14:32 PM 42.8797 -95.4419 81° East 519 597 41,000  Level Minneapolis Center
Sun 02:15:34 PM 42.9008 -95.2486 81° East 518 596 41,000  Level Minneapolis Center
Sun 02:16:35 PM 42.9219 -95.0536 82° East 522 601 41,000  Level Minneapolis Center
Sun 02:17:37 PM 42.9433 -94.8581 81° East 525 604 41,000  Level Minneapolis Center
Sun 02:18:39 PM 42.9681 -94.6222 82° East 526 605 41,000  Level Minneapolis Center
Sun 02:19:41 PM 42.9861 -94.4331 83° East 537 618 41,000  Level Minneapolis Center
Sun 02:20:42 PM 43.0067 -94.2350 82° East 533 613 41,000  Level Minneapolis Center
Sun 02:21:44 PM 43.0269 -94.0344 82° East 535 616 41,000  Level Minneapolis Center
Sun 02:22:46 PM 43.0469 -93.8333 82° East 536 617 41,000  Level Minneapolis Center
Sun 02:23:48 PM 43.0703 -93.5911 82° East 538 619 41,000  Level Minneapolis Center
Sun 02:24:49 PM 43.0894 -93.3883 83° East 540 621 41,000  Level Minneapolis Center
Sun 02:25:51 PM 43.0989 -93.1828 86° East 542 624 41,000  Level Minneapolis Center
Sun 02:26:53 PM 43.1031 -92.9761 88° East 547 629 41,000  Level Minneapolis Center
Sun 02:27:55 PM 43.1078 -92.7689 88° East 546 628 41,000  Level Minneapolis Center
Sun 02:28:56 PM 43.1125 -92.5631 88° East 544 626 41,000  Level Minneapolis Center
Sun 02:29:58 PM 43.1150 -92.3611 89° East 536 617 41,000  Level Minneapolis Center
Sun 02:31:00 PM 43.1194 -92.1158 88° East 537 618 41,000  Level Minneapolis Center
Sun 02:32:01 PM 43.1231 -91.9114 89° East 538 619 41,000  Level Minneapolis Center
Sun 02:33:03 PM 43.1264 -91.7067 89° East 536 617 41,000  Level Minneapolis Center
Sun 02:34:05 PM 43.1272 -91.5036 90° East 532 612 41,000  Level Minneapolis Center
Sun 02:35:06 PM 43.1300 -91.2989 89° East 534 615 41,000  Level Minneapolis Center
Sun 02:36:08 PM 43.1311 -91.0958 90° East 534 615 41,000  Level Minneapolis Center
Sun 02:37:10 PM 43.1333 -90.8928 89° East 534 615 41,000  Level Minneapolis Center
Sun 02:38:12 PM 43.1344 -90.6892 90° East 535 616 41,000  Level Minneapolis Center
Sun 02:39:14 PM 43.1342 -90.4444 90° East 537 618 41,000  Level Minneapolis Center
Sun 02:40:15 PM 43.1344 -90.2397 90° East 539 620 41,000  Level Minneapolis Center
Sun 02:41:17 PM 43.1347 -90.0578 90° East 540 621 41,000  Level Minneapolis Center
Sun 02:42:19 PM 43.1347 -89.8119 90° East 541 623 41,000  Level Minneapolis Center
Sun 02:43:21 PM 43.1339 -89.6067 90° East 542 624 41,000  Level Minneapolis Center
Sun 02:44:23 PM 43.1311 -89.4019 91° East 541 623 41,000  Level Minneapolis Center
Sun 02:45:24 PM 43.1297 -89.1981 90° East 540 621 41,000  Level Minneapolis Center
Sun 02:45:54 PM 43.1275 -89.0758 91° East 540 621 41,000  Level Chicago Center
Sun 02:46:56 PM 43.1272 -88.8744 90° East 535 616 41,000  Level Chicago Center
Sun 02:47:58 PM 43.1356 -88.6753 87° East 532 612 41,000  Level Chicago Center
Sun 02:49:00 PM 43.1436 -88.4764 87° East 532 612 41,000  Level Chicago Center
Sun 02:50:02 PM 43.1506 -88.2756 87° East 538 619 41,000  Level Chicago Center
Sun 02:51:04 PM 43.1592 -88.0333 87° East 538 619 41,000  Level Chicago Center
Sun 02:52:06 PM 43.1653 -87.8283 88° East 543 625 41,000  Level Chicago Center
Sun 02:53:08 PM 43.1717 -87.6228 87° East 545 627 41,000  Level Chicago Center
Sun 02:54:10 PM 43.1778 -87.4161 88° East 546 628 41,000  Level Chicago Center
Sun 02:55:11 PM 43.1836 -87.1925 88° East 546 628 41,000  Level Chicago Center
Sun 02:56:13 PM 43.1881 -86.9842 88° East 547 629 41,000  Level Chicago Center
Sun 02:57:15 PM 43.1944 -86.7742 88° East 552 635 41,000  Level Chicago Center
Sun 02:58:17 PM 43.1992 -86.5661 88° East 550 633 41,000  Level Chicago Center
Sun 02:59:19 PM 43.2036 -86.3144 89° East 549 632 41,000  Level Chicago Center
Sun 03:00:21 PM 43.2067 -86.1011 89° East 552 635 41,000  Level Chicago Center
Sun 03:01:23 PM 43.2097 -85.8878 89° East 548 631 41,000  Level Chicago Center
Sun 03:02:25 PM 43.2122 -85.6781 89° East 543 625 41,000  Level Chicago Center
Sun 03:03:27 PM 43.2158 -85.4664 89° East 551 634 41,000  Level Chicago Center
Sun 03:04:29 PM 43.2175 -85.2569 89° East 551 634 41,000  Level Chicago Center
Sun 03:05:31 PM 43.2194 -85.0467 89° East 552 635 41,000  Level Chicago Center
Sun 03:06:33 PM 43.2217 -84.8375 89° East 551 634 41,000  Level Chicago Center
Sun 03:07:34 PM 43.2225 -84.6258 90° East 555 639 41,000  Level Chicago Center
Sun 03:08:36 PM 43.2233 -84.3725 90° East 555 639 41,000  Level Chicago Center
Sun 03:09:22 PM 43.2225 -84.2439 90° East 557 641 41,000  Level Cleveland Center
Sun 03:10:24 PM 43.2214 -83.9900 90° East 555 639 41,000  Level Cleveland Center
Sun 03:11:26 PM 43.2206 -83.7697 90° East 559 643 41,000  Level Cleveland Center
Sun 03:12:28 PM 43.2197 -83.5553 90° East 562 647 41,000  Level Cleveland Center
Sun 03:13:31 PM 43.2172 -83.3419 91° East 560 644 41,000  Level Cleveland Center
Sun 03:14:33 PM 43.2153 -83.1289 91° East 559 643 41,000  Level Cleveland Center
Sun 03:15:35 PM 43.2131 -82.9147 91° East 561 646 41,000  Level Cleveland Center
Sun 03:16:37 PM 43.2111 -82.7014 91° East 559 643 41,000  Level Cleveland Center
Sun 03:17:39 PM 43.2072 -82.4875 91° East 560 644 41,000  Level Cleveland Center
Sun 03:18:29 PM 43.2050 -82.2744 91° East 560 644 41,000  Level Cleveland Center
Sun 03:19:31 PM 43.2003 -82.0606 92° East 561 646 41,000  Level Cleveland Center
Sun 03:20:33 PM 43.1956 -81.8481 92° East 560 644 41,000  Level Cleveland Center
Sun 03:21:35 PM 43.1908 -81.6342 92° East 562 647 41,000  Level Cleveland Center
Sun 03:22:37 PM 43.1856 -81.4197 92° East 563 648 41,000  Level Cleveland Center
Sun 03:23:39 PM 43.1803 -81.1675 92° East 564 649 41,000  Level Cleveland Center
Sun 03:24:41 PM 43.1736 -80.9536 92° East 558 642 41,000  Level Cleveland Center
Sun 03:25:43 PM 43.1681 -80.7372 92° East 563 648 41,000  Level Cleveland Center
Sun 03:26:45 PM 43.1611 -80.5222 92° East 562 647 41,000  Level Cleveland Center
Sun 03:27:47 PM 43.1547 -80.3086 92° East 560 644 41,000  Level Cleveland Center
Sun 03:28:49 PM 43.1478 -80.0944 92° East 566 651 41,000  Level Cleveland Center
Sun 03:29:51 PM 43.1406 -79.8811 93° East 550 633 41,000  Level Cleveland Center
Sun 03:30:54 PM 43.1322 -79.6692 93° East 559 643 41,000  Level Cleveland Center
Sun 03:31:56 PM 43.1206 -79.4133 93° East 562 647 41,000  Level Cleveland Center
Sun 03:32:58 PM 43.1114 -79.2011 93° East 559 643 41,000  Level Cleveland Center
Sun 03:34:00 PM 43.1022 -78.9892 93° East 558 642 41,000  Level Cleveland Center
Sun 03:35:02 PM 43.0922 -78.7789 94° East 555 639 41,000  Level Cleveland Center
Sun 03:36:04 PM 43.0814 -78.5683 94° East 555 639 41,000  Level Cleveland Center
Sun 03:37:06 PM 43.0711 -78.3594 94° East 550 633 41,000  Level Cleveland Center
Sun 03:38:08 PM 43.0572 -78.1075 94° East 552 635 41,000  Level Cleveland Center
Sun 03:39:10 PM 43.0461 -77.8956 94° East 554 638 41,000  Level Cleveland Center
Sun 03:40:13 PM 43.0247 -77.6883 98° East 547 629 41,000  Level Cleveland Center
Sun 03:41:14 PM 42.9900 -77.4856 103° East 543 625 41,000  Level Cleveland Center
Sun 03:42:17 PM 42.9764 -77.2736 95° East 555 639 41,000  Level Cleveland Center
Sun 03:43:19 PM 42.9653 -77.0544 94° East 572 658 41,000  Level Cleveland Center
Sun 03:44:21 PM 42.9528 -76.8317 94° East 584 672 41,000  Level Cleveland Center
Sun 03:45:23 PM 42.9397 -76.5881 94° East 588 677 41,000  Level Cleveland Center
Sun 03:46:25 PM 42.9267 -76.3672 95° East 592 681 41,000 -48 Level Boston Center
Sun 03:47:27 PM 42.9139 -76.1442 94° East 594 684 40,900  Descending Boston Center
Sun 03:48:28 PM 42.9008 -75.9231 95° East 591 680 41,000 50 Climbing Boston Center
Sun 03:49:28 PM 42.8872 -75.7047 95° East 585 673 41,000 -481 Level Boston Center
Sun 03:51:35 PM 42.8569 -75.2581 95° East 544 626 39,500 -783 Descending Cleveland Center
Sun 03:52:32 PM 42.8425 -75.0600 96° East 540 621 38,600 -966 Descending Boston Center
Sun 03:53:33 PM 42.8297 -74.8642 95° East 528 608 37,600 -836 Descending Boston Center
Sun 03:54:34 PM 42.8122 -74.6631 97° East 539 620 36,900 -298 Descending Boston Center
Sun 03:55:34 PM 42.7942 -74.4619 97° East 538 619 37,000 -496 Climbing Boston Center
Sun 03:56:35 PM 42.7747 -74.2653 98° East 531 611 35,900 -984 Descending Boston Center
Sun 03:57:36 PM 42.7553 -74.0492 97° East 532 612 35,000 -435 Descending Boston Center
Sun 03:58:39 PM 42.7342 -73.8408 98° East 554 638 35,000 -581 Level Boston Center
Sun 03:59:40 PM 42.7139 -73.6356 98° East 548 631 33,800 -984 Descending Boston Center
Sun 04:00:41 PM 42.6928 -73.4272 98° East 555 639 33,000 -645 Descending Boston Center
Sun 04:01:41 PM 42.6728 -73.2217 97° East 549 632 32,500 -1,700 Descending Boston Center
Sun 04:02:41 PM 42.6500 -73.0172 99° East 541 623 29,600 -2,565 Descending Boston Center
Sun 04:03:45 PM 42.6303 -72.8181 98° East 532 612 27,200 -2,371 Descending Boston Center
Sun 04:04:45 PM 42.6092 -72.6178 98° East 515 593 24,700 -2,430 Descending Boston Center
Sun 04:05:46 PM 42.5903 -72.4436 98° East 494 568 22,300 -2,459 Descending Boston Center
Sun 04:06:47 PM 42.5708 -72.2611 98° East 482 555 19,700 -2,826 Descending Boston Center
Sun 04:07:47 PM 42.5472 -72.0539 99° East 461 531 16,600 -2,430 Descending Boston Center
Sun 04:08:48 PM 42.5322 -71.8908 97° East 442 509 14,800 -1,902 Descending Boston Center
Sun 04:09:50 PM 42.5181 -71.7403 97° East 412 474 12,700 -1,854 Descending Boston Center
Sun 04:10:51 PM 42.5053 -71.6064 97° East 370 426 11,000 -1,175 Descending Boston Center
Sun 04:11:27 PM 42.5000 -71.5167 95° East 332 382 10,800 -233 Descending KA90
Sun 04:12:34 PM 42.4833 -71.3833 100° East 342 394 10,600 -524 Descending KA90
Sun 04:13:33 PM 42.4667 -71.2500 100° East 336 387 9,700 -1,150 Descending KA90
Sun 04:14:34 PM 42.4667 -71.1333 90° East 317 365 8,300 -1,289 Descending KA90
Sun 04:15:34 PM 42.4500 -71.0333 103° East 271 312 7,100 -1,263 Descending KA90
Sun 04:16:28 PM 42.4167 -70.9500 118° Southeast 266 306 5,900 -1,250 Descending KA90
Sun 04:17:34 PM 42.3667 -70.8667 129° Southeast 254 292 4,600 -1,190 Descending KA90
Sun 04:18:34 PM 42.3167 -70.8000 135° Southeast 247 284 3,400 -800 Descending KA90
Sun 04:19:34 PM 42.2667 -70.7333 135° Southeast 240 276 3,000 -200 Descending KA90
Sun 04:20:34 PM 42.2167 -70.7667 206° Southwest 185 213 3,000  Level KA90
Sun 04:21:40 PM 42.2333 -70.8167 294° West 123 142 3,000  Level KA90
Sun 04:22:34 PM 42.2500 -70.8500 304° West 116 133 3,000  Level KA90
Sun 04:23:04 PM 42.2536 -70.8594 297° West 115 132 3,000 -129 Level Boston Center
Sun 04:24:07 PM 42.2775 -70.8900 317° Northwest 119 137 2,800 -581 Descending Boston Center
Sun 04:25:08 PM 42.3042 -70.9258 315° West 127 146 1,800 -885 Descending Boston Center
Sun 04:26:09 PM 42.3297 -70.9586 317° Northwest 129 148 1,000 -634 Descending Boston Center
Sun 04:27:11 PM 42.3578 -70.9897 321° Northwest 127 146 500 -484 Descending Boston Center

Login

Don't have an account? Register now (free) for customized features, flight alerts, and more!